createdAt,value
2022-12-03T00:00:49.820Z,94.35
2022-12-03T00:04:52.917Z,93.83
2022-12-03T00:08:54.568Z,93.57
2022-12-03T00:12:55.924Z,93.13
2022-12-03T00:16:57.287Z,91.79
2022-12-03T00:21:00.055Z,91.94
2022-12-03T00:25:01.464Z,92.24
2022-12-03T00:29:03.221Z,93.17
2022-12-03T00:33:04.714Z,93.69
2022-12-03T00:37:07.460Z,93.69
2022-12-03T00:41:08.893Z,93.33
2022-12-03T00:45:10.428Z,93.68
2022-12-03T00:49:11.809Z,93.77
2022-12-03T00:53:14.533Z,94.09
2022-12-03T00:57:15.915Z,94.39
2022-12-03T01:01:17.384Z,94.19
2022-12-03T01:05:18.869Z,93.83
2022-12-03T01:09:21.741Z,94.02
2022-12-03T01:13:23.136Z,94.22
2022-12-03T01:17:24.546Z,94.65
2022-12-03T01:21:25.949Z,94.37
2022-12-03T01:25:28.721Z,93.70
2022-12-03T01:29:30.068Z,93.55
2022-12-03T01:33:31.455Z,92.62
2022-12-03T01:37:32.830Z,93.15
2022-12-03T01:41:36.188Z,92.99
2022-12-03T01:45:37.591Z,92.34
2022-12-03T01:49:40.630Z,92.71
2022-12-03T01:53:43.354Z,91.70
2022-12-03T01:57:48.761Z,91.99
2022-12-03T02:01:50.227Z,92.84
2022-12-03T02:05:51.961Z,93.35
2022-12-03T02:09:54.365Z,94.39
2022-12-03T02:13:59.660Z,93.78
2022-12-03T02:18:01.581Z,93.41
2022-12-03T02:22:05.547Z,94.01
2022-12-03T02:26:08.712Z,93.26
2022-12-03T02:30:10.758Z,92.91
2022-12-03T02:34:26.981Z,92.49
2022-12-03T02:38:29.786Z,93.22
2022-12-03T02:42:32.541Z,93.73
2022-12-03T02:46:34.219Z,93.97
2022-12-03T02:50:37.484Z,93.89
2022-12-03T02:54:38.989Z,93.37
2022-12-03T02:58:42.807Z,92.65
2022-12-03T03:02:45.143Z,94.09
2022-12-03T03:06:46.554Z,94.24
2022-12-03T03:10:48.227Z,93.88
2022-12-03T03:14:51.098Z,92.30
2022-12-03T03:18:52.622Z,93.38
2022-12-03T03:22:53.987Z,93.66
2022-12-03T03:26:55.405Z,94.20
2022-12-03T03:31:00.001Z,93.82
2022-12-03T03:35:01.739Z,93.65
2022-12-03T03:39:03.365Z,92.02
2022-12-03T03:43:05.083Z,93.86
2022-12-03T03:47:07.914Z,93.94
2022-12-03T03:51:10.068Z,94.45
2022-12-03T03:55:12.000Z,93.43
2022-12-03T03:59:13.856Z,92.87
2022-12-03T04:03:16.643Z,93.90
2022-12-03T04:07:18.051Z,93.75
2022-12-03T04:11:19.402Z,93.96
2022-12-03T04:15:20.815Z,92.25
2022-12-03T04:19:23.564Z,93.02
2022-12-03T04:23:30.617Z,93.99
2022-12-03T04:27:32.358Z,92.08
2022-12-03T04:31:33.742Z,91.99
2022-12-03T04:35:36.594Z,93.02
2022-12-03T04:39:38.017Z,94.11
2022-12-03T04:43:39.403Z,93.47
2022-12-03T04:47:40.754Z,91.96
2022-12-03T04:51:43.482Z,92.57
2022-12-03T04:55:44.885Z,92.69
2022-12-03T04:59:46.296Z,92.67
2022-12-03T05:03:47.678Z,93.10
2022-12-03T05:07:50.453Z,92.56
2022-12-03T05:11:51.827Z,91.90
2022-12-03T05:15:53.198Z,92.16
2022-12-03T05:19:54.560Z,92.09
2022-12-03T05:23:57.329Z,90.91
2022-12-03T05:27:58.669Z,91.33
2022-12-03T05:32:00.025Z,92.40
2022-12-03T05:36:01.485Z,92.10
2022-12-03T05:40:04.860Z,91.53
2022-12-03T05:44:06.262Z,90.84
2022-12-03T05:48:08.971Z,90.93
2022-12-03T05:52:10.382Z,92.62
2022-12-03T05:56:13.096Z,92.74
2022-12-03T06:00:15.792Z,93.65
2022-12-03T06:04:17.156Z,93.55
2022-12-03T06:08:18.605Z,92.79
2022-12-03T06:12:21.385Z,92.06
2022-12-03T06:16:22.837Z,92.42
2022-12-03T06:20:24.240Z,92.52
2022-12-03T06:24:25.655Z,91.63
2022-12-03T06:28:28.364Z,93.29
2022-12-03T06:32:29.720Z,93.80
2022-12-03T06:36:31.079Z,92.69
2022-12-03T06:40:32.448Z,93.58
2022-12-03T06:44:35.165Z,93.70
2022-12-03T06:48:36.609Z,92.18
2022-12-03T06:52:37.986Z,93.37
2022-12-03T06:56:45.160Z,93.75
2022-12-03T07:00:48.233Z,94.56
2022-12-03T07:04:49.609Z,93.77
2022-12-03T07:08:50.968Z,94.56
2022-12-03T07:12:52.344Z,92.43
2022-12-03T07:16:55.090Z,91.73
2022-12-03T07:20:56.444Z,91.65
2022-12-03T07:24:57.808Z,89.84
2022-12-03T07:28:59.199Z,89.80
2022-12-03T07:33:01.930Z,90.87
2022-12-03T07:37:03.307Z,91.40
2022-12-03T07:41:04.755Z,91.00
2022-12-03T07:45:06.769Z,90.89
2022-12-03T07:49:09.577Z,91.57
2022-12-03T07:53:10.914Z,90.02
2022-12-03T07:57:12.408Z,89.75
2022-12-03T08:01:13.834Z,91.67
2022-12-03T08:05:16.948Z,91.26
2022-12-03T08:09:18.309Z,91.85
2022-12-03T08:13:19.707Z,89.91
2022-12-03T08:17:21.180Z,90.82
2022-12-03T08:21:23.934Z,90.05
2022-12-03T08:25:26.777Z,89.10
2022-12-03T08:29:28.121Z,89.02
2022-12-03T08:33:32.533Z,89.72
2022-12-03T08:37:35.654Z,89.31
2022-12-03T08:41:37.018Z,90.61
2022-12-03T08:45:41.125Z,90.56
2022-12-03T08:49:45.392Z,90.02
2022-12-03T08:53:49.002Z,91.07
2022-12-03T08:57:50.352Z,90.49
2022-12-03T09:01:51.798Z,89.20
2022-12-03T09:05:53.286Z,88.61
2022-12-03T09:09:56.019Z,88.07
2022-12-03T09:14:00.495Z,88.86
2022-12-03T09:18:01.979Z,87.53
2022-12-03T09:22:03.349Z,88.27
2022-12-03T09:26:06.160Z,89.12
2022-12-03T09:30:08.182Z,87.04
2022-12-03T09:34:09.814Z,88.37
2022-12-03T09:38:11.208Z,88.43
2022-12-03T09:42:14.588Z,88.38
2022-12-03T09:46:16.150Z,87.96
2022-12-03T09:50:19.968Z,88.54
2022-12-03T09:54:22.286Z,89.04
2022-12-03T09:58:30.445Z,89.14
2022-12-03T10:02:34.779Z,87.79
2022-12-03T10:06:39.831Z,87.31
2022-12-03T10:10:44.261Z,86.74
2022-12-03T10:14:47.012Z,87.43
2022-12-03T10:18:49.756Z,85.42
2022-12-03T10:22:51.340Z,86.08
2022-12-03T10:26:53.270Z,87.09
2022-12-03T10:30:56.550Z,85.48
2022-12-03T10:35:06.840Z,85.00
2022-12-03T10:39:10.060Z,85.03
2022-12-03T10:43:16.265Z,85.68
2022-12-03T10:47:19.129Z,85.35
2022-12-03T10:51:21.288Z,85.94
2022-12-03T10:55:22.702Z,85.83
2022-12-03T10:59:25.575Z,86.35
2022-12-03T11:03:29.581Z,85.72
2022-12-03T11:07:31.653Z,86.05
2022-12-03T11:11:33.105Z,85.64
2022-12-03T11:15:42.322Z,84.32
2022-12-03T11:19:46.721Z,84.79
2022-12-03T11:24:18.300Z,85.16
2022-12-03T11:28:33.358Z,83.60
2022-12-03T11:33:07.803Z,84.51
2022-12-03T11:37:22.997Z,84.47
2022-12-03T11:41:26.083Z,85.23
2022-12-03T11:45:32.680Z,85.81
2022-12-03T11:49:38.260Z,84.64
2022-12-03T11:53:41.934Z,84.00
2022-12-03T11:57:43.350Z,85.33
2022-12-03T12:01:45.351Z,85.83
2022-12-03T12:05:46.754Z,84.79
2022-12-03T12:09:50.601Z,84.96
2022-12-03T12:13:52.572Z,84.87
2022-12-03T12:17:53.910Z,84.48
2022-12-03T12:21:55.391Z,83.48
2022-12-03T12:26:06.580Z,83.16
2022-12-03T12:30:12.852Z,84.41
2022-12-03T12:34:14.539Z,84.46
2022-12-03T12:38:17.265Z,84.86
2022-12-03T12:42:30.588Z,85.85
2022-12-03T12:46:47.779Z,83.76
2022-12-03T12:50:51.860Z,84.57
2022-12-03T12:54:53.312Z,84.68
2022-12-03T12:58:57.062Z,85.34
2022-12-03T13:03:00.158Z,85.02
2022-12-03T13:07:01.681Z,83.29
2022-12-03T13:11:03.312Z,83.13
2022-12-03T13:15:30.536Z,84.96
2022-12-03T13:19:39.631Z,85.83
2022-12-03T13:23:48.601Z,85.82
2022-12-03T13:27:50.498Z,85.74
2022-12-03T13:31:55.210Z,85.03
2022-12-03T13:35:56.783Z,84.75
2022-12-03T13:40:02.151Z,85.32
2022-12-03T13:44:12.219Z,86.44
2022-12-03T13:48:21.597Z,86.01
2022-12-03T13:52:24.058Z,84.91
2022-12-03T13:56:26.886Z,86.35
2022-12-03T14:00:28.269Z,86.17
2022-12-03T14:04:30.976Z,86.65
2022-12-03T14:08:32.372Z,86.02
2022-12-03T14:12:33.908Z,85.26
2022-12-03T14:16:35.502Z,86.65
2022-12-03T14:20:38.332Z,86.67
2022-12-03T14:24:39.674Z,86.20
2022-12-03T14:28:41.070Z,86.18
2022-12-03T14:32:42.460Z,86.57
2022-12-03T14:36:45.208Z,86.36
2022-12-03T14:40:46.586Z,86.40
2022-12-03T14:44:48.580Z,86.40
2022-12-03T14:48:49.963Z,86.99
2022-12-03T14:52:52.751Z,86.72
2022-12-03T14:56:54.134Z,87.73
2022-12-03T15:00:55.589Z,87.47
2022-12-03T15:04:56.941Z,87.12
2022-12-03T15:08:59.764Z,86.52
2022-12-03T15:13:01.146Z,86.64
2022-12-03T15:17:02.581Z,87.87
2022-12-03T15:21:04.024Z,87.99
2022-12-03T15:25:07.264Z,87.92
2022-12-03T15:29:08.648Z,88.23
2022-12-03T15:33:10.106Z,87.20
2022-12-03T15:37:11.491Z,86.88
2022-12-03T15:41:14.216Z,87.26
2022-12-03T15:45:15.794Z,88.15
2022-12-03T15:49:17.193Z,87.94
2022-12-03T15:53:18.538Z,88.40
2022-12-03T15:57:21.286Z,88.15
2022-12-03T16:01:22.703Z,88.00
2022-12-03T16:05:24.135Z,88.06
2022-12-03T16:09:27.586Z,88.61
2022-12-03T16:13:30.611Z,89.04
2022-12-03T16:17:31.969Z,89.05
2022-12-03T16:21:33.319Z,88.49
2022-12-03T16:25:34.715Z,88.62
2022-12-03T16:29:37.445Z,87.06
2022-12-03T16:33:38.848Z,88.07
2022-12-03T16:37:40.217Z,88.32
2022-12-03T16:41:41.925Z,88.61
2022-12-03T16:45:44.666Z,88.66
2022-12-03T16:49:46.050Z,88.84
2022-12-03T16:53:47.562Z,87.96
2022-12-03T16:57:49.002Z,87.76
2022-12-03T17:01:51.763Z,87.85
2022-12-03T17:05:53.153Z,87.71
2022-12-03T17:09:54.856Z,88.95
2022-12-03T17:13:56.422Z,88.88
2022-12-03T17:17:59.348Z,89.24
2022-12-03T17:22:00.706Z,88.99
2022-12-03T17:26:02.099Z,89.33
2022-12-03T17:30:04.713Z,89.09
2022-12-03T17:34:07.491Z,88.69
2022-12-03T17:38:08.895Z,88.24
2022-12-03T17:42:10.250Z,87.87
2022-12-03T17:46:11.698Z,88.32
2022-12-03T17:50:14.467Z,87.61
2022-12-03T17:54:15.867Z,88.36
2022-12-03T17:58:17.271Z,89.52
2022-12-03T18:02:18.770Z,88.49
2022-12-03T18:06:21.623Z,88.88
2022-12-03T18:10:23.109Z,88.94
2022-12-03T18:14:24.472Z,87.96
2022-12-03T18:18:25.884Z,88.36
2022-12-03T18:22:28.692Z,89.18
2022-12-03T18:26:30.189Z,88.88
2022-12-03T18:30:31.582Z,89.15
2022-12-03T18:34:32.981Z,88.31
2022-12-03T18:38:35.759Z,88.70
2022-12-03T18:42:37.137Z,89.16
2022-12-03T18:46:53.087Z,88.87
2022-12-03T18:50:55.215Z,89.25
2022-12-03T18:54:57.962Z,89.88
2022-12-03T18:58:59.315Z,88.54
2022-12-03T19:03:03.418Z,89.24
2022-12-03T19:07:05.438Z,89.67
2022-12-03T19:11:10.670Z,89.88
2022-12-03T19:15:12.058Z,89.34
2022-12-03T19:19:13.450Z,89.42
2022-12-03T19:23:15.132Z,89.20
2022-12-03T19:27:17.933Z,88.43
2022-12-03T19:31:19.402Z,88.49
2022-12-03T19:35:21.120Z,89.69
2022-12-03T19:39:22.503Z,88.91
2022-12-03T19:43:25.268Z,89.38
2022-12-03T19:47:26.660Z,88.88
2022-12-03T19:51:34.588Z,89.19
2022-12-03T19:55:36.623Z,89.46
2022-12-03T19:59:39.338Z,88.77
2022-12-03T20:03:40.827Z,88.34
2022-12-03T20:07:42.329Z,89.05
2022-12-03T20:11:43.977Z,88.16
2022-12-03T20:15:46.731Z,89.42
2022-12-03T20:19:48.080Z,88.04
2022-12-03T20:23:49.453Z,89.03
2022-12-03T20:27:50.854Z,90.09
2022-12-03T20:31:53.644Z,89.91
2022-12-03T20:35:55.659Z,90.10
2022-12-03T20:39:57.336Z,89.26
2022-12-03T20:43:58.875Z,88.38
2022-12-03T20:48:01.619Z,89.37
2022-12-03T20:52:04.887Z,89.90
2022-12-03T20:56:06.997Z,89.14
2022-12-03T21:00:08.754Z,88.95
2022-12-03T21:04:11.792Z,88.94
2022-12-03T21:08:13.615Z,88.89
2022-12-03T21:12:15.014Z,89.73
2022-12-03T21:16:17.636Z,90.14
2022-12-03T21:20:21.373Z,89.27
2022-12-03T21:24:22.887Z,89.73
2022-12-03T21:28:24.316Z,89.72
2022-12-03T21:32:25.714Z,88.86
2022-12-03T21:36:28.461Z,89.95
2022-12-03T21:40:29.819Z,90.14
2022-12-03T21:44:31.233Z,89.15
2022-12-03T21:48:33.228Z,89.47
2022-12-03T21:52:35.981Z,88.84
2022-12-03T21:56:37.434Z,89.37
2022-12-03T22:00:38.772Z,88.89
2022-12-03T22:04:40.138Z,90.18
2022-12-03T22:08:43.003Z,90.45
2022-12-03T22:12:44.392Z,90.21
2022-12-03T22:16:45.734Z,89.87
2022-12-03T22:20:47.174Z,89.83
2022-12-03T22:24:49.916Z,90.36
2022-12-03T22:28:51.312Z,90.16
2022-12-03T22:32:52.730Z,89.94
2022-12-03T22:36:54.097Z,89.67
2022-12-03T22:40:56.874Z,89.79
2022-12-03T22:44:58.248Z,89.99
2022-12-03T22:49:06.383Z,90.02
2022-12-03T22:53:08.489Z,90.30
2022-12-03T22:57:11.321Z,90.56
2022-12-03T23:01:19.857Z,90.67
2022-12-03T23:05:21.230Z,90.51
2022-12-03T23:09:22.586Z,90.17
2022-12-03T23:13:25.390Z,89.73
2022-12-03T23:17:26.734Z,89.90
2022-12-03T23:21:30.586Z,90.18
2022-12-03T23:25:32.282Z,90.09
2022-12-03T23:29:35.413Z,90.47
2022-12-03T23:33:38.596Z,90.47
2022-12-03T23:37:42.515Z,90.00
2022-12-03T23:41:43.945Z,89.99
2022-12-03T23:45:46.685Z,90.35
2022-12-03T23:49:48.042Z,90.04
2022-12-03T23:53:49.816Z,90.41
2022-12-03T23:57:51.195Z,90.41
